Avon, North Carolina
Current Conditions -  °F | °C
As of 2:51 AM on Friday 24 Oct 2014 (Local Time) from KHSE Reporting Station
Clear Clear  
Wind Chill: 61°   Ceiling: Unl
Heat Index: 61°   Visibility: 10mi
Dew Point: 49°   Wind: 10mph
Humidity: 64%   Direction: 310°NW
Pressure: 29.94"   Gusts: 18mph
Location:  35.35°N, 75.51°W
Report Text: KHSE 240651Z AUTO 31009G16KT 10SM CLR 16/09 A2994 RMK AO2 SLP137 T01610094 TSNO
Loading
Personal Weather Stations






























Interactive Weather Map
Tropical Storm Tracking
New forecast layout! Learn more

10-Day Weather Forecast

Advertisements
Track Severe Weather on mobile